Aviation Digital Data Service (ADDS)

Output produced by METARs form (1855 UTC 18 June 2019)
found at http://www.aviationweather.gov/metar/data/
 
K3AU 181835Z AUTO 18007KT 10SM SCT025 BKN120 26/20 A2992 RMK AO2
K1K1 181835Z AUTO 16008KT 10SM SCT025 26/20 A2992 RMK AO2 T02550198
KCNU 181852Z AUTO 12003KT 10SM SCT034 BKN043 29/21 A2991 RMK AO2 SLP117 T02890206
KCNU 181740Z 1818/1918 15006KT P6SM SCT035 
     FM190000 16007KT P6SM VCTS SCT025 BKN040CB 
     FM191100 16007KT P6SM SCT015 BKN025
       
KCFV 181852Z AUTO 10004KT 10SM SCT037 BKN047 29/19 A2989 RMK AO2 SLP116 T02890189
KCBK 181835Z AUTO 01005KT 10SM BKN012 BKN020 OVC095 18/16 A3002 RMK AO2
KCNK 181831Z AUTO 01004KT 10SM BKN006 BKN011 OVC016 21/19 A2993 RMK AO2 LTG DSNT NE-SE RAE27 CIG 004V009 P0000 T02110194
KDDC 181852Z AUTO 13006KT 9SM SCT028 24/18 A2995 RMK AO2 LTG DSNT N SLP116 T02440183
KDDC 181847Z 1819/1918 VRB03KT P6SM SCT026 SCT030 
     FM190200 36011KT P6SM VCTS OVC150CB 
     TEMPO 1903/1905 4SM TS OVC025CB 
     FM190600 35010KT P6SM BKN026
       
KEQA 181835Z AUTO 21006KT 10SM BKN028 BKN035 27/20 A2991 RMK AO2
KEHA 181835Z AUTO 35005KT 10SM CLR 26/16 A2999 RMK AO2 T02630162
KEMP 181753Z AUTO 15005KT 10SM SCT026 26/21 A2992 RMK AO2 SLP123 T02560206 10261 20189 58009
K13K 181835Z AUTO 15003KT 10SM CLR 27/20 A2991 RMK AO2 T02720199
KGCK 181754Z VRB05KT 10SM FEW030 SCT039 23/17 A2997 RMK AO2 SLP123 T02330167 10233 20156 56005
KGCK 181720Z 1818/1918 23005KT P6SM VCSH SCT029 SCT035 
     FM182100 28010KT P6SM SCT180 
     FM190200 36014KT P6SM SHRA OVC200 
     TEMPO 1902/1904 4SM TS BR OVC025CB 
     FM190600 01011KT P6SM OVC025
       
KGLD 181846Z AUTO 02007KT 10SM FEW015 FEW025 OVC035 19/16 A3002 RMK AO2 RAB16E31 P0001 T01890161
KGLD 181740Z 1818/1918 03007KT P6SM VCSH BKN020 OVC030 
     FM182300 03009KT P6SM VCTS SCT035 BKN060CB 
     FM190500 01005KT P6SM BKN020 
     FM190800 VRB04KT P6SM OVC010 
     FM191100 VRB04KT 4SM BR OVC004 
     FM191500 27006KT P6SM BKN040
       
KGBD 181843Z AUTO 35004KT 10SM BKN006 BKN080 OVC100 19/18 A2995 RMK AO2 RAB1757E11 P0000
KGBD 181740Z 1818/1918 VRB05KT P6SM -RA VCTS SCT015 BKN035CB 
     TEMPO 1818/1820 VRB10G20KT 2SM +TSRA BKN015CB 
     FM182000 VRB05KT P6SM VCTS SCT020 BKN035CB 
     FM190300 34010KT P6SM SCT015 BKN025
       
KHYS 181834Z AUTO 14004KT 10SM FEW009 OVC015 19/17 A2997 RMK AO2
KHYS 181720Z 1818/1918 11005KT P6SM FEW007 SCT011 OVC019 
     TEMPO 1820/1823 4SM TS BR OVC025CB 
     FM182300 05009KT P6SM VCSH BKN060 
     FM190300 01008KT P6SM BKN025 
     FM191000 35010KT P6SM VCSH OVC006
       
KHLC 181821Z AUTO 13007KT 6SM -RA BR SCT008 BKN017 OVC060 19/18 A2997 RMK AO2 P0001 T01940183
KHQG 181835Z AUTO 06004KT 10SM CLR 25/16 A2998 RMK AO2 T02490156
KHUT 181852Z 35010KT 10SM BKN022 23/17 A2993 RMK AO2 SLP114 T02280172
KHUT 181740Z 1818/1918 12006KT P6SM VCTS SCT035 BKN070CB 
     FM190300 04006KT P6SM VCTS SCT025 BKN040CB 
     FM190800 32009KT P6SM SCT015 BKN025
       
KIDP 181835Z AUTO 12004KT 10SM BKN034 28/20 A2992 RMK AO2 T02800201
KK88 181835Z 10SM CLR 27/19 A2993 RMK AO1 T02740186
KJHN 181835Z AUTO 33004KT 10SM CLR 24/15 A2999 RMK AO2 T02440145
KLWC 181852Z AUTO 10004KT 10SM FEW036 27/17 A2990 RMK AO2 SLP116 T02720172
KLBL 181739Z AUTO VRB03KT 10SM SCT029 24/16 A2998 RMK AO2
KLBL 181720Z 1818/1918 17004KT P6SM SKC 
     FM190100 28011KT P6SM VCSH BKN200
       
KLYO 181835Z AUTO 35007KT 10SM OVC039 19/17 A2994 RMK AO2 T01850172
KMHK 181852Z 13012G18KT 10SM FEW036 FEW120 28/19 A2984 RMK AO2 LTG DSNT W AND NW SLP096 T02780189 $
KMHK 181848Z 1819/1918 VRB08KT P6SM TSRA FEW020CB BKN100 
     FM182000 10010KT 4SM TSRA FEW015CB OVC050 
     FM190100 05007KT 6SM SHRA OVC030 
     FM190600 VRB07KT 3SM SHRA OVC009 
     FM191300 04007KT P6SM OVC015
       
KMYZ 181835Z AUTO 15004KT 10SM OVC110 24/20 A2989 RMK AO2 LTG DSNT SW THRU N
KEWK 181756Z AUTO 16007KT 10SM CLR 24/19 A2994 RMK AO2 LTG DSNT NW SLP124 T02440189 10244 20200 58009
KOEL 181835Z AUTO 01005KT 4SM BR SCT007 BKN030 OVC050 17/17 A3001 RMK AO1 T01700170
KOIN 181855Z AUTO 00000KT 10SM BKN007 BKN016 OVC047 17/17 A3004 RMK AO1 T01700166
KOJC 181753Z VRB04KT 10SM BKN029 24/18 A2994 RMK AO2 SLP130 T02440183 10250 20178 56004
KIXD 181753Z 10005KT 10SM SCT031 26/17 A2995 RMK AO2 SLP130 T02560167 10261 20183 58006
KIXD 181731Z 1818/1918 13006KT P6SM SCT035 BKN200 
     FM190300 VRB04KT P6SM VCTS BKN035CB 
     TEMPO 1903/1907 3SM TSRA BR OVC025CB 
     FM190800 09005KT 6SM BR BKN025 
     FM191100 05005KT 6SM BR OVC007 
     FM191600 04005KT 6SM BR OVC015
       
KOWI 181835Z AUTO VRB05KT 10SM BKN019 25/21 A2992 RMK AO2 PWINO
KPPF 181852Z AUTO 00000KT 10SM CLR 29/20 A2992 RMK AO2 SLP122 T02890200 $
KPTS 181855Z AUTO 05006KT 10SM SCT029 26/20 A2991 RMK AO2 T02610196
KPTT 181835Z AUTO 00000KT 10SM SCT029 BKN037 BKN045 26/18 A2993 RMK AO2 T02590182
KRSL 181845Z AUTO 13004KT 10SM SCT009 BKN016 OVC095 19/17 A2994 RMK AO2 RAB17E36 P0000 T01940167
KRSL 181740Z 1818/1918 VRB04KT P6SM -RA VCTS SCT009 SCT015 OVC080CB 
     FM182100 03007KT P6SM VCTS SCT015 BKN030CB 
     FM190000 33008KT P6SM VCTS SCT015 BKN030CB 
     FM190200 34010KT P6SM SCT015 BKN025
       
KSYF 181835Z AUTO 33006KT 7SM SCT010 BKN014 OVC035 18/16 A3003 RMK AO2 T01780155
KSLN 181848Z 28008KT 4SM RA BR FEW050 SCT080 OVC100 19/18 A2993 RMK AO2 WSHFT 1743 LTG DSNT NE-SE P0046
KSLN 181740Z 1818/1918 18006KT P6SM -RA VCTS SCT025 BKN040CB 
     TEMPO 1818/1820 VRB10G20KT 2SM +TSRA BKN025CB 
     FM182100 04008KT P6SM VCTS SCT025 BKN040CB 
     FM190600 32008KT P6SM SCT015 BKN250
       
KTQK 181835Z AUTO 28006KT 10SM SCT028 SCT035 22/16 A2997 RMK AO1 T02210157
K19S 181835Z AUTO 15003KT 10SM BKN031 BKN036 24/17 A2998 RMK AO2 T02350165
K3K3 181835Z AUTO 31006KT 10SM BKN033 22/15 A3000 RMK AO2
KFOE 181753Z 11007KT 10SM FEW034 27/19 A2992 RMK AO2 SLP121 T02720189 10278 20178 58008
KFOE 181737Z 1818/1918 VRB06KT P6SM SCT040 
     FM182200 15007KT P6SM VCTS FEW015CB BKN035 
     TEMPO 1900/1903 18015G25KT 4SM TSRA BKN009CB 
     FM190400 VRB05KT 4SM SHRA OVC030 
     FM190900 06006KT 3SM SHRA OVC008 
     FM191500 02007KT P6SM VCSH OVC030
       
KTOP 181753Z 11008G16KT 10SM SCT031 BKN045 27/19 A2991 RMK AO2 SLP120 T02720194 10283 20211 58010
KTOP 181737Z 1818/1918 VRB06KT P6SM SCT030 
     FM182200 15007KT P6SM VCTS FEW020CB BKN040 
     TEMPO 1900/1903 18015G25KT 4SM TSRA BKN010CB 
     FM190400 VRB04KT 4SM SHRA BR OVC030 
     FM190900 06006KT 3SM SHRA BR OVC009 
     FM191500 02007KT P6SM VCSH OVC030
       
KULS 181835Z AUTO 34004KT 10SM SCT033 23/17 A2996 RMK AO2
KBEC 181835Z AUTO 21004KT 10SM SCT025 26/20 A2991 RMK AO2 T02640201
KAAO 181754Z AUTO 13006KT 10SM FEW021 25/19 A2992 RMK AO2 SLP121 T02500194 10250 20200 58009
KICT 181753Z 16008KT 10SM FEW040 FEW120 SCT160 BKN200 26/19 A2992 RMK AO2 SLP119 CB TOPS DSNT NW-N MOVG NE T02610194 10261 20217 58009
KICT 181740Z 1818/1918 15006KT P6SM VCSH SCT035 BKN200 
     FM182200 14006KT P6SM VCTS BKN040CB 
     FM190300 04006KT P6SM VCTS SCT025 BKN040CB 
     FM190900 32008KT P6SM SCT015 BKN025